Time;durP1;ratioP1;P1;durP2;ratioP2;P2;SDS_P1;SDS_P2;PMS_P1;PMS_P2;Temp;Humidity;BMP_temperature;BMP_pressure;BME280_temperature;BME280_humidity;BME280_pressure;Samples;Min_cycle;Max_cycle;Signal;HPM_P1;HPM_P2
2023/06/22 00:02:23;;;;;;;;;;;;;;;22.26;73.13;97327.77;623602;227;68704;-60
2023/06/22 00:04:50;;;;;;;;;;;;;;;22.25;73.12;97339.53;623654;227;65052;-60
2023/06/22 00:07:18;;;;;;;;;;;;;;;22.25;73.14;97333.38;623598;227;68991;-60
2023/06/22 00:09:45;;;;;;;;;;;;;;;22.25;73.17;97328.83;623591;227;68457;-60
2023/06/22 00:12:13;;;;;;;;;;;;;;;22.25;73.12;97334.18;623485;227;64847;-60
2023/06/22 00:14:40;;;;;;;;;;;;;;;22.26;73.15;97335.80;623449;227;68724;-60
2023/06/22 00:17:08;;;;;;;;;;;;;;;22.26;73.07;97335.80;623645;227;68615;-60
2023/06/22 00:19:35;;;;;;;;;;;;;;;22.25;73.10;97333.38;623603;227;65029;-60
2023/06/22 00:22:03;;;;;;;;;;;;;;;22.26;73.09;97338.48;623615;227;68887;-60
2023/06/22 00:24:30;;;;;;;;;;;;;;;22.25;73.13;97339.53;623595;227;68638;-61
2023/06/22 00:26:58;;;;;;;;;;;;;;;22.25;73.17;97330.70;623612;227;65189;-60
2023/06/22 00:29:25;;;;;;;;;;;;;;;22.25;73.10;97334.18;623656;227;66562;-60
2023/06/22 00:31:54;;;;;;;;;;;;;;;22.25;73.14;97336.06;623616;226;44898;-62
2023/06/22 00:34:22;;;;;;;;;;;;;;;22.26;73.17;97346.52;623629;227;65781;-61
2023/06/22 00:36:51;;;;;;;;;;;;;;;22.24;73.16;97335.27;623626;227;67389;-61
2023/06/22 00:39:19;;;;;;;;;;;;;;;22.24;73.12;97337.94;623633;227;66446;-61
2023/06/22 00:41:46;;;;;;;;;;;;;;;22.25;73.13;97342.21;623704;227;62736;-61
2023/06/22 00:44:14;;;;;;;;;;;;;;;22.25;73.16;97344.09;623637;227;68750;-61
2023/06/22 00:46:41;;;;;;;;;;;;;;;22.25;73.12;97344.89;623653;227;69174;-60
2023/06/22 00:49:08;;;;;;;;;;;;;;;22.25;73.13;97338.73;623583;227;62786;-60
2023/06/22 00:51:38;;;;;;;;;;;;;;;22.23;73.11;97333.64;623752;227;66572;-61
2023/06/22 00:54:06;;;;;;;;;;;;;;;22.25;73.13;97331.50;623701;227;69006;-61
2023/06/22 00:56:37;;;;;;;;;;;;;;;22.24;73.14;97332.59;623778;227;63525;-61
2023/06/22 00:59:03;;;;;;;;;;;;;;;22.25;73.15;97328.83;623679;226;66553;-61
2023/06/22 01:01:31;;;;;;;;;;;;;;;22.24;73.16;97321.08;623708;227;68523;-61
2023/06/22 01:03:58;;;;;;;;;;;;;;;22.26;73.15;97319.73;623736;227;65932;-61
2023/06/22 01:06:29;;;;;;;;;;;;;;;22.25;73.15;97320.80;623741;227;68788;-61
2023/06/22 01:08:58;;;;;;;;;;;;;;;22.24;73.15;97308.48;623510;227;68454;-62
2023/06/22 01:11:45;;;;;;;;;;;;;;;22.25;73.16;97312.76;623701;226;63793;-60
2023/06/22 01:14:13;;;;;;;;;;;;;;;22.24;73.16;97313.84;623686;226;68394;-60
2023/06/22 01:16:44;;;;;;;;;;;;;;;22.25;73.15;97315.44;623694;226;68253;-60
2023/06/22 01:19:32;;;;;;;;;;;;;;;22.24;73.16;97319.20;623739;227;63001;-60
2023/06/22 01:22:00;;;;;;;;;;;;;;;22.23;73.22;97308.75;613760;230;66443;-60
2023/06/22 01:24:31;;;;;;;;;;;;;;;22.24;73.19;97310.37;613801;229;68779;-60
2023/06/22 01:27:17;;;;;;;;;;;;;;;22.24;73.17;97303.14;616388;226;63705;-60
2023/06/22 01:29:45;;;;;;;;;;;;;;;22.24;73.12;97294.31;623773;227;68223;-60
2023/06/22 01:32:13;;;;;;;;;;;;;;;22.24;73.17;97291.63;623748;227;68503;-60
2023/06/22 01:34:41;;;;;;;;;;;;;;;22.24;73.20;97297.78;623745;227;64956;-60
2023/06/22 01:37:08;;;;;;;;;;;;;;;22.24;73.21;97294.31;623720;227;68963;-60
2023/06/22 01:39:36;;;;;;;;;;;;;;;22.23;73.21;97301.52;623767;227;68672;-60
2023/06/22 01:42:05;;;;;;;;;;;;;;;22.22;73.22;97299.92;623714;227;65042;-60
2023/06/22 01:44:33;;;;;;;;;;;;;;;22.24;73.18;97305.02;623734;227;68835;-60
2023/06/22 01:47:01;;;;;;;;;;;;;;;22.23;73.22;97312.22;623727;227;67220;-60
2023/06/22 01:49:29;;;;;;;;;;;;;;;22.25;73.18;97317.32;623706;227;62746;-60
2023/06/22 01:51:57;;;;;;;;;;;;;;;22.24;73.21;97313.84;623724;227;68893;-60
2023/06/22 01:54:25;;;;;;;;;;;;;;;22.24;73.18;97311.17;623776;227;68652;-60
2023/06/22 01:56:52;;;;;;;;;;;;;;;22.23;73.18;97312.22;623732;227;64921;-60
2023/06/22 01:59:28;;;;;;;;;;;;;;;22.24;73.18;97307.70;623745;227;68745;-60
2023/06/22 02:02:09;;;;;;;;;;;;;;;22.23;73.17;97314.90;623711;227;65696;-61
2023/06/22 02:04:50;;;;;;;;;;;;;;;22.24;73.20;97318.41;623752;227;65023;-61
2023/06/22 02:07:19;;;;;;;;;;;;;;;22.24;73.19;97323.76;623696;226;69017;-61
2023/06/22 02:09:47;;;;;;;;;;;;;;;22.24;73.18;97331.79;623771;227;69006;-61
2023/06/22 02:12:16;;;;;;;;;;;;;;;22.23;73.21;97330.96;623697;227;63793;-61
2023/06/22 02:14:46;;;;;;;;;;;;;;;22.23;73.20;97330.96;623718;227;68595;-61
2023/06/22 02:17:14;;;;;;;;;;;;;;;22.23;73.20;97325.61;623725;227;66653;-61
2023/06/22 02:19:42;;;;;;;;;;;;;;;22.23;73.21;97330.16;623633;227;62683;-61
2023/06/22 02:22:10;;;;;;;;;;;;;;;22.23;73.23;97332.84;623787;227;68834;-61
2023/06/22 02:24:37;;;;;;;;;;;;;;;22.24;73.19;97329.11;623747;227;68394;-61
2023/06/22 02:27:07;;;;;;;;;;;;;;;22.23;73.25;97333.64;623711;227;64849;-61
2023/06/22 02:29:34;;;;;;;;;;;;;;;22.22;73.20;97329.38;623716;227;65805;-61
2023/06/22 02:32:03;;;;;;;;;;;;;;;22.23;73.25;97336.31;623730;227;69105;-61
2023/06/22 02:34:33;;;;;;;;;;;;;;;22.23;73.27;97338.99;623744;227;64839;-61
2023/06/22 02:37:02;;;;;;;;;;;;;;;22.23;73.19;97338.20;623760;227;69423;-61
2023/06/22 02:39:30;;;;;;;;;;;;;;;22.23;73.20;97336.31;623709;227;66667;-61
2023/06/22 02:41:58;;;;;;;;;;;;;;;22.24;73.21;97337.14;623732;227;64856;-61
2023/06/22 02:44:25;;;;;;;;;;;;;;;22.23;73.20;97336.31;623734;227;68773;-61
2023/06/22 02:46:54;;;;;;;;;;;;;;;22.23;73.19;97336.31;623728;227;68339;-61
2023/06/22 02:49:21;;;;;;;;;;;;;;;22.23;73.12;97336.31;623724;227;65061;-60
2023/06/22 02:51:49;;;;;;;;;;;;;;;22.23;73.18;97333.64;623734;227;69214;-61
2023/06/22 02:54:18;;;;;;;;;;;;;;;22.23;73.18;97330.96;623733;226;47104;-61
2023/06/22 02:56:47;;;;;;;;;;;;;;;22.23;73.19;97330.96;623743;227;63003;-61
2023/06/22 02:59:15;;;;;;;;;;;;;;;22.23;73.17;97330.96;623732;227;68967;-61
2023/06/22 03:01:43;;;;;;;;;;;;;;;22.23;73.13;97330.16;623764;227;67196;-61
2023/06/22 03:04:13;;;;;;;;;;;;;;;22.23;73.13;97335.52;622767;226;45027;-61
2023/06/22 03:06:41;;;;;;;;;;;;;;;22.23;73.13;97330.96;623577;227;68795;-61
2023/06/22 03:09:08;;;;;;;;;;;;;;;22.23;73.16;97325.61;623751;227;69176;-61
2023/06/22 03:11:36;;;;;;;;;;;;;;;22.23;73.20;97324.81;623747;227;65074;-61
2023/06/22 03:14:04;;;;;;;;;;;;;;;22.23;73.18;97328.28;623763;227;66142;-61
2023/06/22 03:16:33;;;;;;;;;;;;;;;22.22;73.16;97334.72;623798;227;68490;-61
2023/06/22 03:19:00;;;;;;;;;;;;;;;22.23;73.22;97328.28;623732;227;65815;-61
2023/06/22 03:21:28;;;;;;;;;;;;;;;22.23;73.21;97332.84;623756;227;66679;-61
2023/06/22 03:23:56;;;;;;;;;;;;;;;22.23;73.18;97344.34;623756;227;69112;-61
2023/06/22 03:26:26;;;;;;;;;;;;;;;22.23;73.15;97341.67;623768;227;65016;-61
2023/06/22 03:28:53;;;;;;;;;;;;;;;22.23;73.21;97340.87;623753;227;69582;-62
2023/06/22 03:31:21;;;;;;;;;;;;;;;22.23;73.17;97338.20;623759;227;66478;-61
2023/06/22 03:33:50;;;;;;;;;;;;;;;22.22;73.16;97329.38;623726;227;64844;-61
2023/06/22 03:36:23;;;;;;;;;;;;;;;22.23;73.17;97338.20;623761;227;66495;-61
2023/06/22 03:38:48;;;;;;;;;;;;;;;22.23;73.18;97336.31;623595;226;68788;-61
2023/06/22 03:41:16;;;;;;;;;;;;;;;22.23;73.17;97336.31;623793;227;62553;-61
2023/06/22 03:43:43;;;;;;;;;;;;;;;22.22;73.18;97345.43;623765;227;66526;-61
2023/06/22 03:46:11;;;;;;;;;;;;;;;22.22;73.20;97349.98;623719;227;68663;-61
2023/06/22 03:48:39;;;;;;;;;;;;;;;22.22;73.22;97358.81;623635;227;64872;-61
2023/06/22 03:51:07;;;;;;;;;;;;;;;22.22;73.21;97364.17;623044;224;68963;-61
2023/06/22 03:53:35;;;;;;;;;;;;;;;22.22;73.20;97361.49;623037;227;66576;-60
2023/06/22 03:56:02;;;;;;;;;;;;;;;22.22;73.23;97358.81;622625;227;64900;-60
2023/06/22 03:58:32;;;;;;;;;;;;;;;22.22;73.17;97355.34;622870;227;68591;-61
2023/06/22 04:00:59;;;;;;;;;;;;;;;22.21;73.22;97354.55;622971;227;68723;-62
2023/06/22 04:03:27;;;;;;;;;;;;;;;22.21;73.20;97357.22;621850;227;62961;-61
2023/06/22 04:05:54;;;;;;;;;;;;;;;22.23;73.21;97356.94;621159;227;67175;-62
2023/06/22 04:08:22;;;;;;;;;;;;;;;22.21;73.21;97354.55;622289;227;66576;-61
2023/06/22 04:10:49;;;;;;;;;;;;;;;22.22;73.20;97356.14;622402;227;62805;-61
2023/06/22 04:13:19;;;;;;;;;;;;;;;22.22;73.21;97353.46;622330;227;68803;-61
2023/06/22 04:15:47;;;;;;;;;;;;;;;22.22;73.20;97355.34;622414;227;66702;-60
2023/06/22 04:18:14;;;;;;;;;;;;;;;22.21;73.22;97359.08;622849;227;61622;-60
2023/06/22 04:20:42;;;;;;;;;;;;;;;22.21;73.22;97365.25;623075;227;68868;-60
2023/06/22 04:23:09;;;;;;;;;;;;;;;22.22;73.21;97356.14;623071;227;66551;-60
2023/06/22 04:25:37;;;;;;;;;;;;;;;22.22;73.17;97358.02;623064;225;64801;-60
2023/06/22 04:28:04;;;;;;;;;;;;;;;22.22;73.18;97349.98;623046;227;68748;-60
2023/06/22 04:30:33;;;;;;;;;;;;;;;22.21;73.22;97341.16;623098;227;68522;-61
2023/06/22 04:33:01;;;;;;;;;;;;;;;22.21;73.21;97346.52;623060;227;65065;-60
2023/06/22 04:35:28;;;;;;;;;;;;;;;22.21;73.23;97341.16;623105;227;68764;-60
2023/06/22 04:37:57;;;;;;;;;;;;;;;22.21;73.21;97343.02;623040;227;69044;-60
2023/06/22 04:40:25;;;;;;;;;;;;;;;22.21;73.19;97346.52;623015;227;64854;-60
2023/06/22 04:42:53;;;;;;;;;;;;;;;22.21;73.22;97346.52;623084;227;68922;-60
2023/06/22 04:45:21;;;;;;;;;;;;;;;22.21;73.22;97343.84;623047;227;66794;-60
2023/06/22 04:47:49;;;;;;;;;;;;;;;22.22;73.22;97349.98;623053;227;65129;-61
2023/06/22 04:50:17;;;;;;;;;;;;;;;22.22;73.23;97353.46;623033;227;68786;-60
2023/06/22 04:52:45;;;;;;;;;;;;;;;22.21;73.23;97349.19;623039;227;66575;-61
2023/06/22 04:55:12;;;;;;;;;;;;;;;22.21;73.22;97353.72;623038;227;65155;-61
2023/06/22 04:57:40;;;;;;;;;;;;;;;22.22;73.24;97358.02;623079;227;66424;-61
2023/06/22 05:00:17;;;;;;;;;;;;;;;22.20;73.24;97347.56;623017;227;66580;-61
2023/06/22 05:02:43;;;;;;;;;;;;;;;22.21;73.24;97343.02;622944;226;65102;-61
2023/06/22 05:05:13;;;;;;;;;;;;;;;22.21;73.23;97345.69;623005;227;69095;-62
2023/06/22 05:07:42;;;;;;;;;;;;;;;22.21;73.27;97345.69;622979;227;73042;-61
2023/06/22 05:10:12;;;;;;;;;;;;;;;22.20;73.29;97342.22;623035;226;64853;-62
2023/06/22 05:12:40;;;;;;;;;;;;;;;22.21;73.23;97345.69;623018;227;66637;-62
2023/06/22 05:15:08;;;;;;;;;;;;;;;22.21;73.24;97343.02;623035;227;68686;-61
2023/06/22 05:17:36;;;;;;;;;;;;;;;22.20;73.25;97350.25;623038;227;65036;-60
2023/06/22 05:20:06;;;;;;;;;;;;;;;22.21;73.24;97359.08;623044;227;68556;-60
2023/06/22 05:22:33;;;;;;;;;;;;;;;22.21;73.25;97351.88;623005;227;66377;-60
2023/06/22 05:25:01;;;;;;;;;;;;;;;22.20;73.27;97360.95;623081;227;62970;-60
2023/06/22 05:27:28;;;;;;;;;;;;;;;22.20;73.27;97360.95;623029;227;68343;-61
2023/06/22 05:29:56;;;;;;;;;;;;;;;22.20;73.30;97360.16;623035;227;68295;-60
2023/06/22 05:32:23;;;;;;;;;;;;;;;22.19;73.25;97362.04;622994;227;65097;-60
2023/06/22 05:34:51;;;;;;;;;;;;;;;22.20;73.23;97360.16;623029;227;68492;-60
2023/06/22 05:37:18;;;;;;;;;;;;;;;22.21;73.25;97361.75;623104;227;68482;-60
2023/06/22 05:39:47;;;;;;;;;;;;;;;22.20;73.24;97358.28;623111;226;46297;-60
2023/06/22 05:42:15;;;;;;;;;;;;;;;22.20;73.25;97363.63;623014;227;66442;-61
2023/06/22 05:44:44;;;;;;;;;;;;;;;22.20;73.28;97368.98;622883;226;46902;-60
2023/06/22 05:47:12;;;;;;;;;;;;;;;22.21;73.27;97367.11;622990;227;63829;-62
2023/06/22 05:49:42;;;;;;;;;;;;;;;22.20;73.25;97362.84;623529;227;68766;-60
2023/06/22 05:52:09;;;;;;;;;;;;;;;22.19;73.27;97356.69;625040;227;69007;-60
2023/06/22 05:54:38;;;;;;;;;;;;;;;22.20;73.28;97362.84;624968;227;64994;-62
2023/06/22 05:57:06;;;;;;;;;;;;;;;22.28;73.31;97360.41;625050;227;68791;-61
2023/06/22 05:59:34;;;;;;;;;;;;;;;22.25;72.89;97368.98;624985;227;66410;-61
2023/06/22 06:02:01;;;;;;;;;;;;;;;22.22;73.20;97356.14;624353;227;62882;-61
2023/06/22 06:04:28;;;;;;;;;;;;;;;22.22;73.28;97368.73;625059;227;66485;-61
2023/06/22 06:06:56;;;;;;;;;;;;;;;22.22;73.18;97366.05;625026;227;68597;-63
2023/06/22 06:09:23;;;;;;;;;;;;;;;22.20;73.13;97363.63;625006;227;65102;-60
2023/06/22 06:11:51;;;;;;;;;;;;;;;22.23;73.39;97363.09;624854;227;68556;-60
2023/06/22 06:14:19;;;;;;;;;;;;;;;22.21;73.28;97370.61;624683;224;68748;-61
2023/06/22 06:16:47;;;;;;;;;;;;;;;22.21;73.17;97369.78;617730;229;62887;-60
2023/06/22 06:19:15;;;;;;;;;;;;;;;22.20;73.10;97363.63;617875;229;68863;-60
2023/06/22 06:21:42;;;;;;;;;;;;;;;22.20;73.05;97363.63;617856;229;66233;-63
2023/06/22 06:24:10;;;;;;;;;;;;;;;22.21;73.01;97364.43;617866;229;62918;-61
2023/06/22 06:26:37;;;;;;;;;;;;;;;22.22;72.98;97363.37;621123;227;66585;-60
2023/06/22 06:29:07;;;;;;;;;;;;;;;22.22;72.94;97356.14;625044;225;48430;-61
2023/06/22 06:31:36;;;;;;;;;;;;;;;22.22;72.87;97364.17;625036;225;46484;-60
2023/06/22 06:34:04;;;;;;;;;;;;;;;22.23;72.88;97359.61;624960;227;68751;-60
2023/06/22 06:36:31;;;;;;;;;;;;;;;22.22;72.88;97364.17;624947;227;68506;-61
2023/06/22 06:38:59;;;;;;;;;;;;;;;22.23;72.92;97368.44;624983;227;64920;-61
2023/06/22 06:41:26;;;;;;;;;;;;;;;22.24;73.02;97377.30;625015;227;68825;-61
2023/06/22 06:43:54;;;;;;;;;;;;;;;22.24;73.13;97377.30;624945;227;68755;-61
2023/06/22 06:46:21;;;;;;;;;;;;;;;22.24;73.18;97371.95;624954;227;65253;-61
2023/06/22 06:48:48;;;;;;;;;;;;;;;22.24;73.25;97377.30;625035;227;68821;-61
2023/06/22 06:51:16;;;;;;;;;;;;;;;22.24;73.30;97379.98;623886;227;68284;-60
2023/06/22 06:53:43;;;;;;;;;;;;;;;22.24;73.53;97372.74;623669;227;62978;-60
2023/06/22 06:56:12;;;;;;;;;;;;;;;22.24;73.67;97377.30;623652;227;66502;-63
2023/06/22 06:58:41;;;;;;;;;;;;;;;22.25;73.71;97387.72;623644;227;68524;-60
2023/06/22 07:01:09;;;;;;;;;;;;;;;22.26;73.78;97386.67;623525;226;64986;-61
2023/06/22 07:03:37;;;;;;;;;;;;;;;22.26;73.81;97378.64;623701;227;68728;-61
2023/06/22 07:06:04;;;;;;;;;;;;;;;22.27;73.87;97380.23;623506;227;68929;-60
2023/06/22 07:08:31;;;;;;;;;;;;;;;22.27;73.91;97380.23;623732;227;64989;-61
2023/06/22 07:11:00;;;;;;;;;;;;;;;22.27;73.94;97380.23;623634;227;68816;-61
2023/06/22 07:13:28;;;;;;;;;;;;;;;22.28;73.99;97375.67;623648;227;66564;-61
2023/06/22 07:15:56;;;;;;;;;;;;;;;22.29;74.00;97382.62;623665;227;65011;-61
2023/06/22 07:18:24;;;;;;;;;;;;;;;22.29;73.98;97383.45;623604;227;66396;-61
2023/06/22 07:20:56;;;;;;;;;;;;;;;22.29;73.98;97383.45;623678;227;66718;-61
2023/06/22 07:23:20;;;;;;;;;;;;;;;22.31;73.98;97375.92;623525;226;64846;-62
2023/06/22 07:25:49;;;;;;;;;;;;;;;22.30;73.91;97373.53;623640;227;68509;-62
2023/06/22 07:28:16;;;;;;;;;;;;;;;22.31;73.89;97372.45;623627;227;66579;-61
2023/06/22 07:30:44;;;;;;;;;;;;;;;22.31;73.86;97370.57;623672;227;63809;-61
2023/06/22 07:33:11;;;;;;;;;;;;;;;22.32;73.83;97371.39;623634;227;69140;-60
2023/06/22 07:35:39;;;;;;;;;;;;;;;22.32;73.74;97369.52;623618;227;66583;-61
2023/06/22 07:38:07;;;;;;;;;;;;;;;22.33;73.49;97365.75;623582;227;64964;-61
2023/06/22 07:40:35;;;;;;;;;;;;;;;22.33;73.59;97360.40;623613;227;68785;-61
2023/06/22 07:43:03;;;;;;;;;;;;;;;22.33;73.52;97368.44;623614;227;68698;-61
2023/06/22 07:45:33;;;;;;;;;;;;;;;22.34;73.40;97370.05;623697;227;65121;-61
2023/06/22 07:48:01;;;;;;;;;;;;;;;22.35;73.37;97360.14;623432;225;68762;-62
2023/06/22 07:50:31;;;;;;;;;;;;;;;22.34;73.16;97359.34;623551;227;68713;-62
2023/06/22 07:52:58;;;;;;;;;;;;;;;22.35;73.12;97360.14;623680;227;65239;-62
2023/06/22 07:55:26;;;;;;;;;;;;;;;22.36;73.03;97356.37;623587;227;68793;-61
2023/06/22 07:57:53;;;;;;;;;;;;;;;22.36;72.84;97361.73;623698;227;68695;-61
2023/06/22 08:00:21;;;;;;;;;;;;;;;22.37;72.82;97366.00;623598;227;65086;-64
2023/06/22 08:02:48;;;;;;;;;;;;;;;22.38;72.65;97362.27;623597;227;68880;-62
2023/06/22 08:05:17;;;;;;;;;;;;;;;22.39;72.53;97358.52;623682;227;68669;-61
2023/06/22 08:07:44;;;;;;;;;;;;;;;22.38;72.40;97360.39;623665;227;65064;-61
2023/06/22 08:10:12;;;;;;;;;;;;;;;22.38;72.32;97363.07;623585;227;68770;-63
2023/06/22 08:12:40;;;;;;;;;;;;;;;22.40;72.23;97370.84;623708;227;66354;-63
2023/06/22 08:15:09;;;;;;;;;;;;;;;22.43;71.31;97359.59;623469;227;62978;-61
2023/06/22 08:17:37;;;;;;;;;;;;;;;22.47;71.04;97367.88;623662;227;68819;-61
2023/06/22 08:20:23;;;;;;;;;;;;;;;22.47;71.36;97363.31;623565;227;69011;-63
2023/06/22 08:22:38;;;;;;;;;;;;;;;22.48;71.31;97366.78;622733;226;62476;-62
2023/06/22 08:25:06;;;;;;;;;;;;;;;22.49;71.55;97373.77;623687;227;68929;-61
2023/06/22 08:27:33;;;;;;;;;;;;;;;22.50;71.61;97375.36;623626;227;66571;-62
2023/06/22 08:30:01;;;;;;;;;;;;;;;22.49;71.28;97376.44;623618;227;65014;-62
2023/06/22 08:32:29;;;;;;;;;;;;;;;22.46;71.82;97375.11;623665;227;68736;-61
2023/06/22 08:34:57;;;;;;;;;;;;;;;22.45;72.05;97378.05;623653;227;68709;-61
2023/06/22 08:37:30;;;;;;;;;;;;;;;22.44;72.40;97376.45;623627;225;63803;-62
2023/06/22 08:39:54;;;;;;;;;;;;;;;22.43;72.57;97372.18;623583;226;68537;-62
2023/06/22 08:42:23;;;;;;;;;;;;;;;22.42;72.66;97371.36;623605;227;68628;-61
2023/06/22 08:44:53;;;;;;;;;;;;;;;22.42;72.77;97365.20;623536;227;65281;-62
2023/06/22 08:47:21;;;;;;;;;;;;;;;22.41;72.82;97371.64;623663;227;69190;-61
2023/06/22 08:49:49;;;;;;;;;;;;;;;22.41;72.88;97363.61;623592;227;68640;-62
2023/06/22 08:52:18;;;;;;;;;;;;;;;22.41;72.82;97368.97;623539;227;62713;-62
2023/06/22 08:54:46;;;;;;;;;;;;;;;22.40;72.89;97365.48;623557;227;68777;-63
2023/06/22 08:57:14;;;;;;;;;;;;;;;22.40;72.98;97370.84;623580;227;68659;-62
2023/06/22 08:59:41;;;;;;;;;;;;;;;22.42;72.28;97357.97;623485;227;65049;-65
2023/06/22 09:02:09;;;;;;;;;;;;;;;22.46;72.20;97356.36;623600;227;68869;-62
2023/06/22 09:04:36;;;;;;;;;;;;;;;22.52;71.20;97357.15;623613;227;66572;-62
2023/06/22 09:07:04;;;;;;;;;;;;;;;22.48;71.72;97359.58;623502;227;65072;-62
2023/06/22 09:09:32;;;;;;;;;;;;;;;22.47;72.60;97362.52;623557;227;68822;-62
2023/06/22 09:11:59;;;;;;;;;;;;;;;22.46;73.67;97360.92;623559;227;68677;-62
2023/06/22 09:14:26;;;;;;;;;;;;;;;22.45;73.79;97359.30;623552;227;62870;-62
2023/06/22 09:16:54;;;;;;;;;;;;;;;22.44;73.99;97357.70;623608;227;66433;-62
2023/06/22 09:19:22;;;;;;;;;;;;;;;22.43;74.15;97361.47;623487;227;66338;-62
2023/06/22 09:21:49;;;;;;;;;;;;;;;22.43;74.23;97358.80;623587;227;62749;-62
2023/06/22 09:24:16;;;;;;;;;;;;;;;22.43;74.30;97350.76;623527;227;66474;-62
2023/06/22 09:26:44;;;;;;;;;;;;;;;22.43;74.28;97353.44;623577;227;65506;-62
2023/06/22 09:29:11;;;;;;;;;;;;;;;22.42;74.35;97343.78;623508;227;62774;-62
2023/06/22 09:31:39;;;;;;;;;;;;;;;22.42;74.43;97349.13;623418;227;68580;-62
2023/06/22 09:34:07;;;;;;;;;;;;;;;22.42;74.50;97355.28;623496;227;68682;-62
2023/06/22 09:36:34;;;;;;;;;;;;;;;22.42;74.57;97349.13;623565;227;65024;-62
2023/06/22 09:39:05;;;;;;;;;;;;;;;22.41;74.54;97348.34;623594;227;68480;-62
2023/06/22 09:41:31;;;;;;;;;;;;;;;22.41;74.45;97340.30;623500;226;68295;-62
2023/06/22 09:43:59;;;;;;;;;;;;;;;22.42;74.43;97341.10;623663;227;65039;-62
2023/06/22 09:46:26;;;;;;;;;;;;;;;22.41;74.50;97342.98;623540;227;68765;-62
2023/06/22 09:48:54;;;;;;;;;;;;;;;22.42;74.45;97341.89;623525;227;68674;-62
2023/06/22 09:51:23;;;;;;;;;;;;;;;22.43;74.43;97348.08;623663;227;65148;-62
2023/06/22 09:53:51;;;;;;;;;;;;;;;22.42;74.45;97349.13;623693;227;66497;-62
2023/06/22 09:56:18;;;;;;;;;;;;;;;22.42;74.43;97347.25;623599;227;68693;-61
2023/06/22 09:58:46;;;;;;;;;;;;;;;22.42;74.45;97344.58;623646;227;63054;-61
2023/06/22 10:01:17;;;;;;;;;;;;;;;22.42;74.44;97349.13;623586;227;69225;-62
2023/06/22 10:03:45;;;;;;;;;;;;;;;22.42;74.41;97346.45;623615;227;68705;-62
2023/06/22 10:06:12;;;;;;;;;;;;;;;22.42;74.43;97349.13;623655;227;65032;-62
2023/06/22 10:08:40;;;;;;;;;;;;;;;22.43;74.45;97350.76;623709;227;68858;-62
2023/06/22 10:11:08;;;;;;;;;;;;;;;22.43;74.40;97348.08;623649;227;68541;-62
2023/06/22 10:13:35;;;;;;;;;;;;;;;22.43;74.41;97348.08;623659;227;65023;-62
2023/06/22 10:16:04;;;;;;;;;;;;;;;22.42;74.40;97349.13;623464;225;68724;-62
2023/06/22 10:18:32;;;;;;;;;;;;;;;22.43;74.36;97356.11;623634;227;68746;-62
2023/06/22 10:20:59;;;;;;;;;;;;;;;22.43;74.35;97354.23;623703;227;62867;-62
2023/06/22 10:23:36;;;;;;;;;;;;;;;22.44;74.35;97352.35;623507;227;66595;-62
2023/06/22 10:29:25;;;;;;;;;;;;;;;22.44;74.31;97342.44;623666;227;39044;-61
2023/06/22 10:31:56;;;;;;;;;;;;;;;22.44;74.31;97344.31;623613;227;66626;-60
2023/06/22 10:34:48;;;;;;;;;;;;;;;22.43;74.31;97342.72;623420;227;67881;-61
2023/06/22 10:41:12;;;;;;;;;;;;;;;22.42;74.30;97341.89;613508;231;43188;-60
2023/06/22 12:21:00;;;;;;;;;;;;;;;22.50;72.86;97335.19;622725;227;39134;-60
2023/06/22 12:23:28;;;;;;;;;;;;;;;22.51;72.60;97326.09;621658;227;66424;-61
2023/06/22 12:25:55;;;;;;;;;;;;;;;22.51;72.43;97326.89;621397;228;68944;-61
2023/06/22 12:28:23;;;;;;;;;;;;;;;22.52;72.83;97333.05;621510;228;63132;-61
2023/06/22 12:30:50;;;;;;;;;;;;;;;22.52;73.58;97319.66;621516;228;68748;-61
2023/06/22 12:33:18;;;;;;;;;;;;;;;22.52;73.73;97322.33;621428;228;68648;-61
2023/06/22 12:35:48;;;;;;;;;;;;;;;22.53;73.80;97329.28;621536;228;65273;-61
2023/06/22 12:38:15;;;;;;;;;;;;;;;22.54;73.87;97325.55;621491;228;68845;-62
2023/06/22 12:40:43;;;;;;;;;;;;;;;22.54;73.64;97320.19;621478;228;68799;-62
2023/06/22 12:43:10;;;;;;;;;;;;;;;22.54;73.61;97322.87;621520;228;65078;-62
2023/06/22 12:45:38;;;;;;;;;;;;;;;22.54;73.56;97314.83;621430;228;68633;-62
2023/06/22 12:48:06;;;;;;;;;;;;;;;22.54;73.60;97320.98;621542;228;68752;-61
2023/06/22 12:50:34;;;;;;;;;;;;;;;22.55;73.47;97322.58;621471;228;65103;-61
2023/06/22 12:53:03;;;;;;;;;;;;;;;22.56;73.31;97320.69;621473;228;69049;-61
2023/06/22 12:55:30;;;;;;;;;;;;;;;22.55;73.28;97305.71;621455;228;66666;-61
2023/06/22 12:57:58;;;;;;;;;;;;;;;22.56;73.16;97307.30;621508;228;64809;-61
2023/06/22 13:00:25;;;;;;;;;;;;;;;22.56;73.29;97308.13;621442;228;68816;-61
2023/06/22 13:02:52;;;;;;;;;;;;;;;22.57;73.26;97308.92;621473;228;68830;-61
2023/06/22 13:05:20;;;;;;;;;;;;;;;22.57;73.10;97307.05;621519;228;65098;-61
2023/06/22 13:07:48;;;;;;;;;;;;;;;22.58;73.08;97310.52;621462;228;68718;-62
2023/06/22 13:10:15;;;;;;;;;;;;;;;22.57;70.93;97299.01;621497;228;68649;-61
2023/06/22 13:12:43;;;;;;;;;;;;;;;22.59;70.55;97296.86;621488;228;65050;-61
2023/06/22 13:15:10;;;;;;;;;;;;;;;22.64;71.61;97293.34;621493;228;68790;-61
2023/06/22 13:17:38;;;;;;;;;;;;;;;22.64;71.91;97293.34;621487;228;68739;-61
2023/06/22 13:20:06;;;;;;;;;;;;;;;22.63;71.99;97293.63;621476;228;64927;-61
2023/06/22 13:22:39;;;;;;;;;;;;;;;22.63;72.10;97291.75;621983;227;68845;-61
2023/06/22 13:25:05;;;;;;;;;;;;;;;22.63;72.43;97286.39;622343;228;66716;-61
2023/06/22 13:27:33;;;;;;;;;;;;;;;22.65;72.51;97294.96;622658;228;62890;-61
2023/06/22 13:30:00;;;;;;;;;;;;;;;22.67;72.72;97290.14;622564;228;68777;-62
2023/06/22 13:32:28;;;;;;;;;;;;;;;22.69;72.90;97301.36;622628;228;68498;-62
2023/06/22 13:34:55;;;;;;;;;;;;;;;22.72;72.99;97300.01;620927;228;65000;-61
2023/06/22 13:37:22;;;;;;;;;;;;;;;22.73;72.17;97302.42;619036;229;68839;-63
2023/06/22 13:39:50;;;;;;;;;;;;;;;22.75;72.73;97294.09;618982;229;69017;-66
2023/06/22 13:42:17;;;;;;;;;;;;;;;22.77;72.54;97299.98;619135;229;63042;-63
2023/06/22 13:44:45;;;;;;;;;;;;;;;22.78;72.75;97296.22;619107;229;66595;-63
2023/06/22 13:47:12;;;;;;;;;;;;;;;22.80;72.93;97286.04;619141;229;66585;-62
2023/06/22 13:49:40;;;;;;;;;;;;;;;22.81;73.09;97295.70;617848;226;62898;-63
2023/06/22 13:52:10;;;;;;;;;;;;;;;22.80;72.96;97294.87;621483;228;66510;-63
2023/06/22 13:54:37;;;;;;;;;;;;;;;22.82;72.97;97289.25;622542;228;68495;-63
2023/06/22 13:57:04;;;;;;;;;;;;;;;22.83;72.95;97290.84;622591;228;65016;-62
2023/06/22 13:59:32;;;;;;;;;;;;;;;22.84;72.87;97295.14;622727;228;66114;-62
2023/06/22 14:01:59;;;;;;;;;;;;;;;22.84;72.98;97289.78;622527;228;66344;-62
2023/06/22 14:04:28;;;;;;;;;;;;;;;22.86;72.99;97292.17;622517;228;62841;-62
2023/06/22 14:06:56;;;;;;;;;;;;;;;22.86;72.94;97284.92;622593;228;68800;-62
2023/06/22 14:09:23;;;;;;;;;;;;;;;22.87;72.91;97286.55;622587;228;70153;-62
2023/06/22 14:11:51;;;;;;;;;;;;;;;22.88;72.92;97290.02;622546;228;64985;-62
2023/06/22 14:14:18;;;;;;;;;;;;;;;22.88;72.91;97288.14;622613;228;68456;-62
2023/06/22 14:16:46;;;;;;;;;;;;;;;22.89;72.97;97283.58;622582;228;68480;-62
2023/06/22 14:19:13;;;;;;;;;;;;;;;22.89;72.99;97278.22;622572;228;64999;-62
2023/06/22 14:21:41;;;;;;;;;;;;;;;22.90;72.88;97277.16;622541;227;68861;-63
2023/06/22 14:24:08;;;;;;;;;;;;;;;22.90;72.93;97285.98;622534;228;68663;-62
2023/06/22 14:26:36;;;;;;;;;;;;;;;22.91;72.87;97286.79;622470;228;62884;-62
2023/06/22 14:29:03;;;;;;;;;;;;;;;22.92;72.88;97283.05;622598;228;68776;-62
2023/06/22 14:31:31;;;;;;;;;;;;;;;22.92;72.93;97278.48;622629;228;66716;-62
2023/06/22 14:33:59;;;;;;;;;;;;;;;22.93;72.91;97279.28;622466;228;65187;-62
2023/06/22 14:36:26;;;;;;;;;;;;;;;22.93;72.93;97273.92;622608;228;68738;-62
2023/06/22 14:38:53;;;;;;;;;;;;;;;22.93;72.93;97269.36;622557;228;68735;-62